createdAt,value
2018-06-09T00:00:22.429Z,27.4
2018-06-09T00:10:21.630Z,27.4
2018-06-09T00:20:20.902Z,27.4
2018-06-09T00:30:20.667Z,27.4
2018-06-09T00:40:19.602Z,27.4
2018-06-09T00:50:18.615Z,27.4
2018-06-09T01:00:17.867Z,27.4
2018-06-09T01:10:17.093Z,27.5
2018-06-09T01:20:16.267Z,27.5
2018-06-09T01:30:15.770Z,27.5
2018-06-09T01:40:15.043Z,27.5
2018-06-09T01:50:13.948Z,27.5
2018-06-09T02:00:13.505Z,27.4
2018-06-09T02:10:13.554Z,27.5
2018-06-09T02:20:11.719Z,27.4
2018-06-09T02:30:10.985Z,27.5
2018-06-09T02:40:10.159Z,27.4
2018-06-09T02:50:09.470Z,27.4
2018-06-09T03:00:08.654Z,27.4
2018-06-09T03:10:08.513Z,27.4
2018-06-09T03:20:07.126Z,27.5
2018-06-09T03:30:06.316Z,27.5
2018-06-09T03:40:05.584Z,27.5
2018-06-09T03:50:04.808Z,27.5
2018-06-09T04:00:04.052Z,27.5
2018-06-09T04:10:03.598Z,27.5
2018-06-09T04:20:02.536Z,27.5
2018-06-09T04:30:01.721Z,27.5
2018-06-09T04:40:00.978Z,27.5
2018-06-09T04:50:00.186Z,27.5
2018-06-09T05:00:00.105Z,27.4
2018-06-09T05:09:58.643Z,27.4
2018-06-09T05:19:57.877Z,27.3
2018-06-09T05:29:57.254Z,27.3
2018-06-09T05:39:56.352Z,27.2
2018-06-09T05:49:55.896Z,27.1
2018-06-09T05:59:54.885Z,27
2018-06-09T06:09:54.045Z,26.9
2018-06-09T06:19:53.979Z,26.9
2018-06-09T06:29:52.505Z,26.9
2018-06-09T06:39:52.041Z,26.9
2018-06-09T06:49:51.061Z,27.1
2018-06-09T06:59:50.895Z,27.1
2018-06-09T07:09:49.778Z,27.1
2018-06-09T07:19:49.269Z,27.1
2018-06-09T07:29:47.912Z,27.1
2018-06-09T07:39:47.173Z,27.1
2018-06-09T07:49:46.396Z,27.2
2018-06-09T07:59:45.667Z,27.2
2018-06-09T08:09:44.875Z,27.2
2018-06-09T08:19:44.099Z,27.3
2018-06-09T08:29:43.642Z,27.3
2018-06-09T08:39:42.652Z,27.2
2018-06-09T08:49:42.081Z,27.1
2018-06-09T08:59:41.338Z,27.1
2018-06-09T09:09:40.290Z,27.2
2018-06-09T09:19:39.540Z,27.2
2018-06-09T09:29:38.768Z,27.2
2018-06-09T09:39:38.022Z,27.2
2018-06-09T09:49:37.224Z,27.3
2018-06-09T09:59:36.827Z,27.3
2018-06-09T10:09:35.868Z,27.3
2018-06-09T10:19:34.927Z,27.3
2018-06-09T10:29:34.158Z,27.4
2018-06-09T10:39:33.695Z,27.4
2018-06-09T10:49:32.956Z,27.4
2018-06-09T10:59:31.866Z,27.4
2018-06-09T11:09:31.519Z,27.4
2018-06-09T11:19:30.369Z,27.5
2018-06-09T11:29:29.860Z,27.5
2018-06-09T11:39:29.089Z,27.5
2018-06-09T11:49:28.910Z,27.5
2018-06-09T11:59:27.336Z,27.5
2018-06-09T12:09:26.642Z,27.6
2018-06-09T12:19:26.342Z,27.4
2018-06-09T12:29:25.390Z,26.7
2018-06-09T12:39:24.281Z,26.2
2018-06-09T12:49:23.496Z,26.6
2018-06-09T12:59:23.637Z,27
2018-06-09T13:09:22.294Z,27.3
2018-06-09T13:19:21.446Z,27.4
2018-06-09T13:29:20.700Z,27.6
2018-06-09T13:39:19.637Z,27.8
2018-06-09T13:49:18.881Z,27.8
2018-06-09T13:59:18.148Z,27.9
2018-06-09T14:09:18.056Z,27.6
2018-06-09T14:19:16.684Z,27.3
2018-06-09T14:29:15.877Z,27.3
2018-06-09T14:39:15.180Z,27.3
2018-06-09T14:49:14.388Z,27.1
2018-06-09T14:59:13.634Z,27.1
2018-06-09T15:09:12.868Z,27.1
2018-06-09T15:19:12.202Z,27.2
2018-06-09T15:29:11.324Z,27.3
2018-06-09T15:39:10.656Z,27.4
2018-06-09T15:49:09.823Z,27.4
2018-06-09T15:59:09.043Z,27.5
2018-06-09T16:09:08.408Z,27.6
2018-06-09T16:19:07.791Z,27.6
2018-06-09T16:29:07.095Z,27.6
2018-06-09T16:39:05.966Z,27.6
2018-06-09T16:49:05.236Z,27.5
2018-06-09T16:59:04.446Z,27.4
2018-06-09T17:09:03.985Z,27.3
2018-06-09T17:19:03.081Z,27.3
2018-06-09T17:29:02.154Z,27.1
2018-06-09T17:39:01.431Z,27.1
2018-06-09T17:49:01.248Z,26.9
2018-06-09T17:59:00.169Z,26.9
2018-06-09T18:08:59.116Z,26.8
2018-06-09T18:18:58.433Z,26.8
2018-06-09T18:28:57.585Z,26.7
2018-06-09T18:38:57.153Z,26.6
2018-06-09T18:48:56.345Z,26.5
2018-06-09T18:58:55.315Z,26.4
2018-06-09T19:08:54.584Z,26.4
2018-06-09T19:18:53.899Z,26.4
2018-06-09T19:28:52.994Z,26.3
2018-06-09T19:38:52.445Z,26.3
2018-06-09T19:48:51.791Z,26.3
2018-06-09T19:58:50.814Z,26.4
2018-06-09T20:08:50.032Z,26.4
2018-06-09T20:18:49.479Z,26.4
2018-06-09T20:28:48.743Z,26.5
2018-06-09T20:38:48.538Z,26.6
2018-06-09T20:48:46.895Z,26.6
2018-06-09T20:58:46.151Z,26.8
2018-06-09T21:08:45.674Z,26.8
2018-06-09T21:18:44.606Z,26.9
2018-06-09T21:28:43.927Z,26.9
2018-06-09T21:38:43.073Z,27
2018-06-09T21:48:42.456Z,27.1
2018-06-09T21:58:41.709Z,27.1
2018-06-09T22:08:40.772Z,27.1
2018-06-09T22:18:40.026Z,27.2
2018-06-09T22:28:39.303Z,27.2
2018-06-09T22:38:38.804Z,27.3
2018-06-09T22:48:37.725Z,27.3
2018-06-09T22:58:37.308Z,27.3
2018-06-09T23:08:36.200Z,27.3
2018-06-09T23:18:35.692Z,27.3
2018-06-09T23:28:34.658Z,27.3
2018-06-09T23:38:33.994Z,27.4
2018-06-09T23:48:33.199Z,27.4
2018-06-09T23:58:32.655Z,27.4
